Michalakis III — SVA7821 — position and weather

sailwx.info

Track history (hours):
 
Tides and Currents Weather Stations Pressure Air Temp Water Temp Dewpoint Dewpoint Depression Visibility Wind Speed Wind Dir Waves Ship Positions

Michalakis III

Last reported at 2017-Dec-03 12:49 UTC. Time now 2017-Dec-12 04:45 UTC.
Position N 38°23' E 023°48'.
Warning: this ship's position is 8 days out of date.

Length 78 m; draft 3 m.

Type: Passenger vessel. MMSI: 240043200.

Date/timePositionNaut miles runAvg speedWind from/ knotsBaromVisibWave heightAir tempDewpointWater temp
2017-Dec-03 12:49N 38°23' E 023°48'15 7.8
2017-Dec-03 10:53N 38°14' E 024°03'510.1
2017-Dec-03 10:21N 38°11' E 024°08'  
2017-Nov-30 11:57N 38°11' E 024°08'0 0.0
2017-Nov-30 07:57N 38°11' E 024°08'2 1.2
2017-Nov-30 06:42N 38°11' E 024°10'2 8.7
2017-Nov-30 06:30N 38°11' E 024°08'2 1.2
2017-Nov-30 05:10N 38°10' E 024°06'2 8.1
2017-Nov-30 04:59N 38°11' E 024°08'1 0.1
2017-Nov-29 16:10N 38°11' E 024°06'3 2.9
2017-Nov-29 15:06N 38°11' E 024°10'3 9.2
2017-Nov-29 14:50N 38°11' E 024°07'0 0.1
2017-Nov-29 14:03N 38°11' E 024°07'0 9.2
2017-Nov-29 14:00N 38°11' E 024°07'2 2.4
2017-Nov-29 13:07N 38°11' E 024°10'2 9.3
2017-Nov-29 12:54N 38°11' E 024°08'1 1.2
2017-Nov-29 12:06N 38°10' E 024°06'1 8.8
2017-Nov-29 12:00N 38°11' E 024°08'1 0.2
2017-Nov-29 08:02N 38°11' E 024°07'1 9.6
2017-Nov-29 07:58N 38°11' E 024°07'1 0.8
2017-Nov-29 06:31N 38°11' E 024°09'2 1.4
2017-Nov-29 05:07N 38°11' E 024°07'2 9.1
2017-Nov-29 04:54N 38°11' E 024°09'2 0.1
2017-Nov-28 16:01N 38°11' E 024°07'111.1
2017-Nov-28 15:56N 38°11' E 024°08'0 0.1
2017-Nov-28 14:56N 38°11' E 024°08'1 1.3
2017-Nov-28 14:08N 38°11' E 024°07'2 1.7
2017-Nov-28 13:04N 38°11' E 024°09'2 1.7
2017-Nov-28 12:05N 38°11' E 024°07'1 9.2
2017-Nov-28 12:00N 38°11' E 024°08'1 0.4
2017-Nov-28 09:14N 38°11' E 024°09'2 1.7
2017-Nov-28 08:03N 38°11' E 024°07'1 9.0
2017-Nov-28 07:57N 38°11' E 024°08'4 3.1
2017-Nov-28 06:47N 38°11' E 024°12'3 9.2
2017-Nov-28 06:29N 38°11' E 024°09'2 1.4
2017-Nov-28 05:07N 38°11' E 024°06'1 0.1
2017-Nov-27 16:09N 38°09' E 024°07'2 8.7
2017-Nov-27 15:54N 38°11' E 024°09'1 1.3
2017-Nov-27 15:09N 38°11' E 024°10'2 9.1
2017-Nov-27 14:57N 38°11' E 024°08'1 0.6
2017-Nov-27 14:01N 38°11' E 024°07'1 9.3
2017-Nov-27 13:58N 38°11' E 024°08'2 2.2
2017-Nov-27 13:14N 38°11' E 024°10'3 2.4
2017-Nov-27 12:08N 38°10' E 024°07'1 8.7
2017-Nov-27 12:00N 38°11' E 024°08'1 0.6
2017-Nov-27 09:20N 38°11' E 024°10'3 9.5
2017-Nov-27 09:00N 38°12' E 024°06'0 0.6
2017-Nov-27 08:11N 38°11' E 024°06'2 8.3
2017-Nov-27 07:53N 38°11' E 024°09'1 0.8
2017-Nov-27 06:35N 38°11' E 024°10'2 9.9
2017-Nov-27 06:22N 38°10' E 024°08'1 0.9
2017-Nov-27 05:06N 38°11' E 024°06'1 8.8
2017-Nov-27 05:00N 38°11' E 024°07'4 0.4
2017-Nov-26 17:42N 38°11' E 024°12'2 9.7
2017-Nov-26 17:31N 38°11' E 024°10'3 3.5
2017-Nov-26 16:40N 38°11' E 024°06'2 9.9
2017-Nov-26 16:27N 38°11' E 024°09'1 0.8
2017-Nov-26 15:16N 38°11' E 024°10'2 9.4
2017-Nov-26 15:00N 38°11' E 024°07'0 0.6
2017-Nov-26 14:20N 38°11' E 024°06'2 1.5
2017-Nov-26 13:02N 38°11' E 024°09'2 2.1
2017-Nov-26 12:04N 38°11' E 024°06'1 9.3
2017-Nov-26 11:59N 38°11' E 024°07'2 0.1
2017-Nov-25 11:01N 38°11' E 024°10'111.7
2017-Nov-25 10:57N 38°11' E 024°09'2 2.1
2017-Nov-25 10:03N 38°11' E 024°07'1 9.5
2017-Nov-25 09:59N 38°11' E 024°07'4 6.1
2017-Nov-25 09:20N 38°11' E 024°12'4 9.0
2017-Nov-25 08:54N 38°11' E 024°08'1 0.5
2017-Nov-25 07:48N 38°11' E 024°07'2 1.6
2017-Nov-25 06:44N 38°11' E 024°09'2 1.2
2017-Nov-25 05:21N 38°11' E 024°07'4 0.4
2017-Nov-24 17:59N 38°11' E 024°12'5 9.8
2017-Nov-24 17:30N 38°11' E 024°06'1 0.8
2017-Nov-24 16:31N 38°11' E 024°07'0 9.4
2017-Nov-24 16:29N 38°11' E 024°08'1 1.1
2017-Nov-24 15:33N 38°11' E 024°09'1 9.1
2017-Nov-24 15:26N 38°11' E 024°08'1 1.2
2017-Nov-24 14:21N 38°11' E 024°06'3 9.5
2017-Nov-24 14:01N 38°11' E 024°10'0 0.0
2017-Nov-24 13:24N 38°11' E 024°10'4 9.4
2017-Nov-24 13:00N 38°11' E 024°05'1 1.0
2017-Nov-24 12:07N 38°11' E 024°06'1 9.2
2017-Nov-24 12:00N 38°11' E 024°08'  
Track history (hours):
 
Tides and Currents Weather Stations Pressure Air Temp Water Temp Dewpoint Dewpoint Depression Visibility Wind Speed Wind Dir Waves Ship Positions

Michalakis III

Last reported at 2017-Dec-03 12:49 UTC. Time now 2017-Dec-12 04:45 UTC.
Position N 38°23' E 023°48'.
Warning: this ship's position is 8 days out of date.

Length 78 m; draft 3 m.

Type: Passenger vessel. MMSI: 240043200.

Date/timePositionNaut miles runAvg speedWind from/ knotsBaromVisibWave heightAir tempDewpointWater temp
2017-Dec-03 12:49N 38°23' E 023°48'15 7.8
2017-Dec-03 10:53N 38°14' E 024°03'510.1
2017-Dec-03 10:21N 38°11' E 024°08'  
2017-Nov-30 11:57N 38°11' E 024°08'0 0.0
2017-Nov-30 07:57N 38°11' E 024°08'2 1.2
2017-Nov-30 06:42N 38°11' E 024°10'2 8.7
2017-Nov-30 06:30N 38°11' E 024°08'2 1.2
2017-Nov-30 05:10N 38°10' E 024°06'2 8.1
2017-Nov-30 04:59N 38°11' E 024°08'1 0.1
2017-Nov-29 16:10N 38°11' E 024°06'3 2.9
2017-Nov-29 15:06N 38°11' E 024°10'3 9.2
2017-Nov-29 14:50N 38°11' E 024°07'0 0.1
2017-Nov-29 14:03N 38°11' E 024°07'0 9.2
2017-Nov-29 14:00N 38°11' E 024°07'2 2.4
2017-Nov-29 13:07N 38°11' E 024°10'2 9.3
2017-Nov-29 12:54N 38°11' E 024°08'1 1.2
2017-Nov-29 12:06N 38°10' E 024°06'1 8.8
2017-Nov-29 12:00N 38°11' E 024°08'1 0.2
2017-Nov-29 08:02N 38°11' E 024°07'1 9.6
2017-Nov-29 07:58N 38°11' E 024°07'1 0.8
2017-Nov-29 06:31N 38°11' E 024°09'2 1.4
2017-Nov-29 05:07N 38°11' E 024°07'2 9.1
2017-Nov-29 04:54N 38°11' E 024°09'2 0.1
2017-Nov-28 16:01N 38°11' E 024°07'111.1
2017-Nov-28 15:56N 38°11' E 024°08'0 0.1
2017-Nov-28 14:56N 38°11' E 024°08'1 1.3
2017-Nov-28 14:08N 38°11' E 024°07'2 1.7
2017-Nov-28 13:04N 38°11' E 024°09'2 1.7
2017-Nov-28 12:05N 38°11' E 024°07'1 9.2
2017-Nov-28 12:00N 38°11' E 024°08'1 0.4
2017-Nov-28 09:14N 38°11' E 024°09'2 1.7
2017-Nov-28 08:03N 38°11' E 024°07'1 9.0
2017-Nov-28 07:57N 38°11' E 024°08'4 3.1
2017-Nov-28 06:47N 38°11' E 024°12'3 9.2
2017-Nov-28 06:29N 38°11' E 024°09'2 1.4
2017-Nov-28 05:07N 38°11' E 024°06'1 0.1
2017-Nov-27 16:09N 38°09' E 024°07'2 8.7
2017-Nov-27 15:54N 38°11' E 024°09'1 1.3
2017-Nov-27 15:09N 38°11' E 024°10'2 9.1
2017-Nov-27 14:57N 38°11' E 024°08'1 0.6
2017-Nov-27 14:01N 38°11' E 024°07'1 9.3
2017-Nov-27 13:58N 38°11' E 024°08'2 2.2
2017-Nov-27 13:14N 38°11' E 024°10'3 2.4
2017-Nov-27 12:08N 38°10' E 024°07'1 8.7
2017-Nov-27 12:00N 38°11' E 024°08'1 0.6
2017-Nov-27 09:20N 38°11' E 024°10'3 9.5
2017-Nov-27 09:00N 38°12' E 024°06'0 0.6
2017-Nov-27 08:11N 38°11' E 024°06'2 8.3
2017-Nov-27 07:53N 38°11' E 024°09'1 0.8
2017-Nov-27 06:35N 38°11' E 024°10'2 9.9
2017-Nov-27 06:22N 38°10' E 024°08'1 0.9
2017-Nov-27 05:06N 38°11' E 024°06'1 8.8
2017-Nov-27 05:00N 38°11' E 024°07'4 0.4
2017-Nov-26 17:42N 38°11' E 024°12'2 9.7
2017-Nov-26 17:31N 38°11' E 024°10'3 3.5
2017-Nov-26 16:40N 38°11' E 024°06'2 9.9
2017-Nov-26 16:27N 38°11' E 024°09'1 0.8
2017-Nov-26 15:16N 38°11' E 024°10'2 9.4
2017-Nov-26 15:00N 38°11' E 024°07'0 0.6
2017-Nov-26 14:20N 38°11' E 024°06'2 1.5
2017-Nov-26 13:02N 38°11' E 024°09'2 2.1
2017-Nov-26 12:04N 38°11' E 024°06'1 9.3
2017-Nov-26 11:59N 38°11' E 024°07'2 0.1
2017-Nov-25 11:01N 38°11' E 024°10'111.7
2017-Nov-25 10:57N 38°11' E 024°09'2 2.1
2017-Nov-25 10:03N 38°11' E 024°07'1 9.5
2017-Nov-25 09:59N 38°11' E 024°07'4 6.1
2017-Nov-25 09:20N 38°11' E 024°12'4 9.0
2017-Nov-25 08:54N 38°11' E 024°08'1 0.5
2017-Nov-25 07:48N 38°11' E 024°07'2 1.6
2017-Nov-25 06:44N 38°11' E 024°09'2 1.2
2017-Nov-25 05:21N 38°11' E 024°07'4 0.4
2017-Nov-24 17:59N 38°11' E 024°12'5 9.8
2017-Nov-24 17:30N 38°11' E 024°06'1 0.8
2017-Nov-24 16:31N 38°11' E 024°07'0 9.4
2017-Nov-24 16:29N 38°11' E 024°08'1 1.1
2017-Nov-24 15:33N 38°11' E 024°09'1 9.1
2017-Nov-24 15:26N 38°11' E 024°08'1 1.2
2017-Nov-24 14:21N 38°11' E 024°06'3 9.5
2017-Nov-24 14:01N 38°11' E 024°10'0 0.0
2017-Nov-24 13:24N 38°11' E 024°10'4 9.4
2017-Nov-24 13:00N 38°11' E 024°05'1 1.0
2017-Nov-24 12:07N 38°11' E 024°06'1 9.2
2017-Nov-24 12:00N 38°11' E 024°08'  

Dump ship's entire track history